Time;durP1;ratioP1;P1;durP2;ratioP2;P2;SDS_P1;SDS_P2;PMS_P1;PMS_P2;Temp;Humidity;BMP_temperature;BMP_pressure;BME280_temperature;BME280_humidity;BME280_pressure;Samples;Min_cycle;Max_cycle;Signal;HPM_P1;HPM_P2
2022/08/12 00:43:16;;;;;;;14.27;5.45;;;;;;;17.81;64.32;101730.09;5076350;28;20108;-72
2022/08/12 00:48:30;;;;;;;18.13;5.70;;;;;;;17.79;63.04;101728.53;5076445;28;20086;-72
2022/08/12 00:50:59;;;;;;;14.82;5.30;;;;;;;17.77;63.09;101725.91;5074816;28;20040;-72
2022/08/12 00:53:27;;;;;;;16.45;5.95;;;;;;;17.77;65.10;101730.50;5076365;28;20043;-72
2022/08/12 00:55:56;;;;;;;13.90;5.18;;;;;;;17.75;64.87;101727.94;5074926;28;20027;-72
2022/08/12 00:58:24;;;;;;;12.07;5.03;;;;;;;17.74;63.20;101720.75;5074794;28;20097;-72
2022/08/12 01:00:50;;;;;;;18.85;5.32;;;;;;;17.76;64.19;101721.50;5075746;28;20073;-72
2022/08/12 01:03:19;;;;;;;14.77;5.18;;;;;;;17.72;65.51;101721.91;5074724;28;20024;-72
2022/08/12 01:11:31;;;;;;;13.98;5.38;;;;;;;17.69;63.88;101722.16;5075670;28;20127;-72
2022/08/12 01:13:59;;;;;;;14.70;5.45;;;;;;;17.67;66.56;101716.03;5074206;28;20024;-72
2022/08/12 01:16:25;;;;;;;14.05;5.28;;;;;;;17.68;65.94;101724.03;5075551;28;20115;-72
2022/08/12 01:18:55;;;;;;;11.63;4.45;;;;;;;17.68;64.73;101723.19;5074646;28;20179;-72
2022/08/12 01:21:26;;;;;;;;;;;;;;;17.77;64.21;101725.06;5075042;28;20510;-72
2022/08/12 01:24:29;;;;;;;13.60;4.68;;;;;;;17.72;63.88;101716.47;5075435;28;19957;-72
2022/08/12 01:26:56;;;;;;;18.95;4.72;;;;;;;17.71;64.21;101723.75;5075628;28;20566;-72
2022/08/12 01:29:29;;;;;;;14.50;4.63;;;;;;;17.70;64.41;101718.47;5075832;28;20361;-72
2022/08/12 01:31:58;;;;;;;12.90;4.60;;;;;;;17.70;64.46;101721.19;5075094;28;20408;-72
2022/08/12 01:34:32;;;;;;;16.45;5.20;;;;;;;17.71;65.40;101721.03;5075683;28;20028;-72
2022/08/12 01:37:01;;;;;;;13.80;4.97;;;;;;;17.69;64.34;101723.06;5075475;28;20514;-72
2022/08/12 01:39:41;;;;;;;12.73;4.28;;;;;;;17.72;65.13;101725.50;5075567;28;20025;-72
2022/08/12 01:42:08;;;;;;;10.23;4.05;;;;;;;17.71;63.93;101721.03;5075801;28;20032;-72
2022/08/12 01:44:35;;;;;;;14.18;5.13;;;;;;;17.70;64.72;101723.91;5073915;28;20020;-72
2022/08/12 01:47:41;;;;;;;13.45;4.80;;;;;;;17.71;64.97;101717.47;5072843;28;20021;-72
2022/08/12 01:50:15;;;;;;;13.65;5.00;;;;;;;17.68;64.95;101726.75;5075364;28;20028;-72
2022/08/12 01:52:53;;;;;;;13.85;4.90;;;;;;;17.69;64.92;101717.59;5075090;28;20381;-72
2022/08/12 01:55:21;;;;;;;15.35;5.00;;;;;;;17.67;64.81;101718.75;5074727;28;20031;-72
2022/08/12 01:57:59;;;;;;;10.57;4.13;;;;;;;17.65;64.82;101722.44;5073544;28;20082;-72
2022/08/12 02:00:34;;;;;;;13.80;4.78;;;;;;;17.62;65.51;101720.00;5074325;28;20480;-72
2022/08/12 02:03:26;;;;;;;13.52;4.85;;;;;;;17.61;64.76;101707.44;5074564;28;20469;-72
2022/08/12 02:12:18;;;;;;;12.40;4.32;;;;;;;17.54;64.13;101702.66;5074997;28;20039;-72
2022/08/12 02:15:22;;;;;;;14.75;5.30;;;;;;;17.57;64.51;101707.81;5074647;28;20436;-72
2022/08/12 02:18:02;;;;;;;13.55;4.93;;;;;;;17.57;65.31;101710.53;5074542;28;20033;-72
2022/08/12 02:20:51;;;;;;;13.63;4.80;;;;;;;17.56;64.04;101711.56;5074686;28;20024;-72
2022/08/12 02:23:18;;;;;;;12.65;4.88;;;;;;;17.53;65.16;101709.13;5074719;28;20248;-72
2022/08/12 02:25:45;;;;;;;21.45;5.10;;;;;;;17.50;64.24;101701.22;5074824;28;20086;-72
2022/08/12 02:28:10;;;;;;;11.70;4.50;;;;;;;17.49;64.46;101705.78;5074544;28;20056;-72
2022/08/12 02:30:37;;;;;;;16.15;6.00;;;;;;;17.45;66.50;101705.22;5072640;28;20137;-72
2022/08/12 02:33:04;;;;;;;13.18;4.90;;;;;;;17.40;64.62;101702.03;5073227;28;20369;-72
2022/08/12 02:35:34;;;;;;;11.70;4.57;;;;;;;17.40;65.58;101698.47;5074361;28;20025;-72
2022/08/12 02:38:03;;;;;;;13.38;5.50;;;;;;;17.37;66.08;101705.03;5074616;28;20052;-72
2022/08/12 02:40:29;;;;;;;;;;;;;;;17.45;64.65;101698.91;5073939;28;20025;-72
2022/08/12 02:43:19;;;;;;;14.02;5.35;;;;;;;17.35;64.70;101701.59;5090255;28;19915;-72
2022/08/12 02:46:03;;;;;;;14.18;5.68;;;;;;;17.33;66.23;101694.56;5074465;28;20020;-72
2022/08/12 02:49:15;;;;;;;14.45;5.65;;;;;;;17.32;65.77;101696.44;5074425;28;20058;-72
2022/08/12 02:51:43;;;;;;;15.63;6.35;;;;;;;17.27;65.93;101690.53;5058117;28;20055;-72
2022/08/12 02:54:08;;;;;;;15.77;5.50;;;;;;;17.24;66.86;101696.25;5074747;28;20021;-72
2022/08/12 02:56:41;;;;;;;13.80;5.30;;;;;;;17.23;65.92;101698.13;5074901;28;20033;-72
2022/08/12 02:59:15;;;;;;;15.07;5.18;;;;;;;17.23;65.14;101699.97;5076395;28;20422;-72
2022/08/12 03:01:45;;;;;;;15.27;6.05;;;;;;;17.22;66.11;101699.09;5077061;28;20025;-72
2022/08/12 03:04:18;;;;;;;14.40;5.78;;;;;;;17.21;66.04;101704.69;5078359;28;20044;-72
2022/08/12 03:06:52;;;;;;;19.00;6.38;;;;;;;17.19;66.27;101693.94;5078588;28;20365;-72
2022/08/12 03:09:20;;;;;;;16.58;5.80;;;;;;;17.18;66.24;101696.81;5077842;28;20031;-72
2022/08/12 03:12:03;;;;;;;18.97;6.33;;;;;;;17.17;65.25;101695.06;5078018;28;20101;-72
2022/08/12 03:14:33;;;;;;;16.63;6.05;;;;;;;17.14;67.32;101690.75;5078396;28;20077;-72
2022/08/12 03:17:24;;;;;;;18.67;6.22;;;;;;;17.14;66.73;101689.91;5078477;28;20471;-72
2022/08/12 03:19:53;;;;;;;20.95;6.70;;;;;;;17.07;66.58;101692.28;5078371;28;20024;-72
2022/08/12 03:22:19;;;;;;;13.18;5.60;;;;;;;17.08;66.70;101691.31;5077952;28;20021;-72
2022/08/12 03:24:45;;;;;;;15.82;5.68;;;;;;;17.05;67.20;101687.00;5076653;28;20025;-72
2022/08/12 03:27:13;;;;;;;18.67;6.60;;;;;;;17.02;67.63;101686.41;5076824;28;20020;-72
2022/08/12 03:29:40;;;;;;;17.38;6.38;;;;;;;16.99;65.97;101687.53;5077684;28;20024;-72
2022/08/12 03:32:06;;;;;;;17.52;6.57;;;;;;;16.97;66.42;101684.13;5077482;28;20581;-72
2022/08/12 03:34:34;;;;;;;16.90;6.57;;;;;;;16.97;67.38;101688.66;5076435;28;20028;-72
2022/08/12 03:37:04;;;;;;;17.30;6.75;;;;;;;16.94;67.18;101674.38;5077664;28;20442;-72
2022/08/12 03:42:31;;;;;;;18.90;6.88;;;;;;;16.94;67.65;101673.50;5077923;28;20028;-72
2022/08/12 04:01:51;;;;;;;18.15;7.25;;;;;;;16.75;67.99;101688.66;5077000;28;20036;-72
2022/08/12 04:04:17;;;;;;;19.45;7.00;;;;;;;16.74;68.57;101689.63;5075687;28;20024;-72
2022/08/12 04:06:46;;;;;;;18.60;6.88;;;;;;;16.73;69.17;101687.06;5077025;28;20023;-72
2022/08/12 04:09:12;;;;;;;18.90;7.78;;;;;;;16.72;68.69;101690.75;5076101;28;20028;-72
2022/08/12 04:14:26;;;;;;;16.52;7.35;;;;;;;16.65;69.90;101695.88;5056918;28;20040;-72
2022/08/12 04:16:52;;;;;;;18.30;7.82;;;;;;;16.63;69.27;101697.84;5056508;28;20040;-72
2022/08/12 04:19:18;;;;;;;18.17;7.75;;;;;;;16.60;69.50;101692.66;5055159;28;20401;-72
2022/08/12 04:21:45;;;;;;;19.98;7.60;;;;;;;16.57;68.47;101698.38;5061886;28;20079;-72
2022/08/12 04:24:10;;;;;;;17.73;7.53;;;;;;;16.56;69.10;101700.22;5072914;28;20028;-72
2022/08/12 04:26:36;;;;;;;17.98;7.97;;;;;;;16.55;69.68;101694.94;5074461;28;20020;-72
2022/08/12 04:29:02;;;;;;;18.60;8.38;;;;;;;16.53;69.59;101691.47;5076472;28;20035;-72
2022/08/12 04:31:33;;;;;;;19.08;8.52;;;;;;;16.54;70.83;101690.50;5074388;28;20163;-72
2022/08/12 04:33:59;;;;;;;19.45;7.70;;;;;;;16.55;70.15;101697.66;5075159;28;20115;-72
2022/08/12 04:36:24;;;;;;;19.80;7.90;;;;;;;16.54;70.47;101694.06;5076627;28;20028;-72
2022/08/12 04:38:50;;;;;;;21.35;8.65;;;;;;;16.55;70.13;101694.94;5075478;28;20028;-72
2022/08/12 04:41:17;;;;;;;20.85;8.82;;;;;;;16.53;69.47;101699.59;5075873;28;20020;-72
2022/08/12 04:43:43;;;;;;;20.45;8.90;;;;;;;16.53;71.03;101697.78;5075806;28;20480;-72
2022/08/12 04:46:08;;;;;;;19.52;9.02;;;;;;;16.57;70.88;101698.38;5075582;28;20051;-72
2022/08/12 04:48:34;;;;;;;19.67;8.43;;;;;;;16.57;70.99;101698.38;5075778;28;20024;-72
2022/08/12 04:51:00;;;;;;;20.60;8.98;;;;;;;16.57;71.04;101696.53;5074861;28;20031;-72
2022/08/12 04:53:27;;;;;;;21.55;8.85;;;;;;;16.58;71.04;101695.53;5074632;28;20468;-71
2022/08/12 04:55:53;;;;;;;20.98;9.60;;;;;;;16.60;70.77;101698.09;5076217;28;20025;-71
2022/08/12 04:58:18;;;;;;;19.58;8.57;;;;;;;16.59;71.12;101699.97;5075869;28;20028;-71
2022/08/12 05:00:44;;;;;;;20.05;9.13;;;;;;;16.60;71.04;101695.38;5075211;28;20020;-71
2022/08/12 05:03:09;;;;;;;25.52;9.75;;;;;;;16.59;73.06;101688.25;5074636;28;20032;-71
2022/08/12 05:05:36;;;;;;;21.63;9.02;;;;;;;16.61;71.60;101688.97;5074693;28;20016;-71
2022/08/12 05:08:02;;;;;;;20.55;9.20;;;;;;;16.65;72.01;101689.56;5074340;28;20021;-71
2022/08/12 05:10:28;;;;;;;20.15;8.98;;;;;;;16.67;72.13;101693.88;5075690;28;20033;-72
2022/08/12 05:13:00;;;;;;;22.20;10.90;;;;;;;16.70;71.92;101690.88;5075425;28;20025;-72
2022/08/12 05:15:26;;;;;;;20.70;9.98;;;;;;;16.71;72.42;101689.91;5074140;28;20026;-72
2022/08/12 05:17:51;;;;;;;22.52;9.02;;;;;;;16.74;72.94;101686.06;5075498;28;20036;-72
2022/08/12 05:20:19;;;;;;;24.50;9.35;;;;;;;16.78;72.05;101684.81;5074379;28;20417;-72
2022/08/12 05:22:44;;;;;;;19.90;8.85;;;;;;;16.78;72.17;101691.09;5074313;28;20055;-72
2022/08/12 05:25:12;;;;;;;21.70;9.73;;;;;;;16.81;73.13;101689.97;5075377;28;20654;-72
2022/08/12 05:27:40;;;;;;;22.13;9.98;;;;;;;16.84;73.22;101691.53;5075426;28;20483;-72
2022/08/12 05:30:07;;;;;;;19.88;9.02;;;;;;;16.84;74.29;101695.13;5074003;28;20114;-72
2022/08/12 05:32:32;;;;;;;20.05;9.75;;;;;;;16.88;70.59;101698.47;5075243;28;20024;-72
2022/08/12 05:34:58;;;;;;;20.55;9.15;;;;;;;16.90;72.39;101699.22;5075288;28;20035;-72
2022/08/12 05:37:23;;;;;;;20.70;9.50;;;;;;;16.96;72.01;101709.53;5073427;28;20024;-72
2022/08/12 05:39:49;;;;;;;19.92;9.63;;;;;;;17.00;71.27;101700.13;5075296;28;20052;-72
2022/08/12 05:42:14;;;;;;;20.33;8.90;;;;;;;17.06;70.63;101710.44;5074052;28;20074;-72
2022/08/12 05:44:39;;;;;;;19.38;8.98;;;;;;;17.14;72.65;101715.22;5074898;28;20036;-72
2022/08/12 05:47:05;;;;;;;18.45;8.30;;;;;;;17.16;72.55;101706.91;5073734;28;20032;-72
2022/08/12 05:49:33;;;;;;;17.92;8.70;;;;;;;17.20;73.47;101711.09;5075065;28;20392;-72
2022/08/12 05:51:59;;;;;;;19.98;9.60;;;;;;;17.26;70.01;101718.69;5074736;28;20468;-72
2022/08/12 05:54:25;;;;;;;19.40;9.07;;;;;;;17.33;70.87;101711.72;5074807;28;20490;-72
2022/08/12 05:56:50;;;;;;;19.58;8.48;;;;;;;17.40;69.33;101712.91;5074869;28;20228;-72
2022/08/12 05:59:15;;;;;;;20.48;9.55;;;;;;;17.49;70.47;101715.81;5075066;28;20481;-72
2022/08/12 06:01:41;;;;;;;21.20;9.25;;;;;;;17.54;70.07;101718.97;5074515;28;20037;-72
2022/08/12 06:04:08;;;;;;;20.25;8.60;;;;;;;17.60;70.84;101722.00;5073532;28;20021;-72
2022/08/12 06:06:38;;;;;;;19.05;8.77;;;;;;;17.65;67.86;101719.72;5073572;28;20036;-72
2022/08/12 06:09:03;;;;;;;19.17;9.38;;;;;;;17.71;66.71;101723.75;5074046;28;20392;-72
2022/08/12 06:11:28;;;;;;;21.95;9.70;;;;;;;17.78;68.10;101722.22;5074693;28;20039;-72
2022/08/12 06:13:57;;;;;;;19.40;9.13;;;;;;;17.87;69.61;101728.69;5074684;28;20503;-72
2022/08/12 06:16:23;;;;;;;19.38;9.20;;;;;;;17.93;67.16;101727.28;5074877;28;20051;-72
2022/08/12 06:18:48;;;;;;;21.02;10.10;;;;;;;17.99;71.13;101721.28;5074736;28;20044;-73
2022/08/12 06:21:16;;;;;;;19.40;8.88;;;;;;;18.05;68.66;101719.88;5073535;28;20043;-73
2022/08/12 06:23:44;;;;;;;20.17;9.75;;;;;;;18.09;68.07;101724.88;5073517;28;20114;-73
2022/08/12 06:26:11;;;;;;;19.85;8.73;;;;;;;18.15;68.63;101724.31;5074651;28;20108;-72
2022/08/12 06:28:42;;;;;;;21.98;9.43;;;;;;;18.22;69.35;101723.78;5074499;28;20548;-72
2022/08/12 06:31:14;;;;;;;20.23;9.38;;;;;;;18.29;68.94;101719.50;5072674;28;20074;-72
2022/08/12 06:33:43;;;;;;;17.60;6.97;;;;;;;18.33;67.15;101720.91;5074312;28;20028;-72
2022/08/12 06:36:09;;;;;;;17.80;7.20;;;;;;;18.38;65.67;101715.91;5074241;28;20029;-72
2022/08/12 06:38:35;;;;;;;21.08;9.02;;;;;;;18.49;65.89;101718.50;5073433;28;20029;-72
2022/08/12 06:43:45;;;;;;;18.88;8.48;;;;;;;18.60;64.56;101722.06;5075015;28;20039;-72
2022/08/12 06:46:12;;;;;;;18.55;7.18;;;;;;;18.62;60.30;101710.00;5072820;28;20108;-72
2022/08/12 06:48:41;;;;;;;19.45;8.38;;;;;;;18.70;63.19;101712.03;5072573;28;20025;-72
2022/08/12 06:51:07;;;;;;;15.85;6.43;;;;;;;18.69;57.75;101718.47;5074483;28;20017;-72
2022/08/12 06:53:33;;;;;;;17.90;7.43;;;;;;;18.79;64.99;101716.59;5074220;28;20052;-72
2022/08/12 06:55:59;;;;;;;18.08;6.53;;;;;;;18.81;61.97;101713.75;5072769;28;20105;-72
2022/08/12 06:58:29;;;;;;;18.50;7.20;;;;;;;18.85;59.39;101716.03;5073961;28;20098;-72
2022/08/12 07:00:56;;;;;;;18.75;8.25;;;;;;;18.93;60.33;101709.00;5072373;28;20024;-72
2022/08/12 07:03:29;;;;;;;18.67;7.78;;;;;;;19.04;61.24;101703.41;5073826;28;20020;-72
2022/08/12 07:06:00;;;;;;;16.52;7.13;;;;;;;19.10;60.71;101702.81;5073669;28;20078;-72
2022/08/12 07:08:30;;;;;;;15.27;6.00;;;;;;;19.11;58.55;101704.53;5072413;28;20603;-72
2022/08/12 07:10:58;;;;;;;16.17;6.28;;;;;;;19.11;56.91;101703.69;5073807;28;20495;-72
2022/08/12 07:13:37;;;;;;;17.50;6.47;;;;;;;19.14;56.45;101711.56;5074378;28;20025;-72
2022/08/12 07:16:05;;;;;;;17.27;6.95;;;;;;;19.17;54.96;101712.13;5073858;28;20480;-72
2022/08/12 07:18:31;;;;;;;18.03;7.17;;;;;;;19.26;59.82;101704.06;5073742;28;20086;-72
2022/08/12 07:20:59;;;;;;;17.50;6.15;;;;;;;19.30;59.69;101714.53;5072656;28;20035;-72
2022/08/12 07:23:26;;;;;;;15.75;5.72;;;;;;;19.31;53.97;101723.53;5072638;28;20023;-72
2022/08/12 07:25:52;;;;;;;16.10;6.78;;;;;;;19.39;54.46;101718.22;5072524;28;20020;-72
2022/08/12 07:28:22;;;;;;;18.58;6.97;;;;;;;19.50;58.79;101720.75;5073761;28;20032;-72
2022/08/12 07:30:48;;;;;;;16.52;6.47;;;;;;;19.54;55.23;101719.44;5072267;28;20040;-72
2022/08/12 07:33:15;;;;;;;15.73;5.70;;;;;;;19.58;56.45;101722.72;5073957;28;20028;-72
2022/08/12 07:35:46;;;;;;;15.82;6.30;;;;;;;19.68;54.68;101723.53;5073710;28;20029;-72
2022/08/12 07:38:42;;;;;;;15.10;5.80;;;;;;;19.74;56.39;101714.75;5073499;28;20017;-72
2022/08/12 07:41:15;;;;;;;17.27;5.90;;;;;;;19.80;54.48;101724.22;5071003;28;20123;-72
2022/08/12 07:43:47;;;;;;;16.30;6.43;;;;;;;19.93;55.18;101720.28;5071926;28;20070;-72
2022/08/12 07:46:17;;;;;;;21.30;6.95;;;;;;;20.04;55.23;101728.25;5074778;28;20024;-72
2022/08/12 07:48:54;;;;;;;16.92;6.80;;;;;;;20.21;55.50;101729.28;5075759;28;20028;-72
2022/08/12 07:51:21;;;;;;;17.83;6.90;;;;;;;20.35;55.70;101725.16;5077036;28;20028;-72
2022/08/12 07:53:47;;;;;;;15.57;6.50;;;;;;;20.40;54.77;101723.69;5077071;28;20033;-72
2022/08/12 07:56:13;;;;;;;17.70;7.25;;;;;;;20.53;54.34;101723.28;5075355;28;20384;-72
2022/08/12 07:58:39;;;;;;;16.63;6.63;;;;;;;20.48;53.71;101725.63;5076811;28;20025;-72
2022/08/12 08:01:14;;;;;;;17.10;5.95;;;;;;;20.54;54.23;101718.69;5076294;28;20042;-72
2022/08/12 08:04:54;;;;;;;17.60;6.18;;;;;;;20.61;53.68;101725.22;5076278;28;20032;-71
2022/08/12 08:06:26;;;;;;;14.32;5.18;;;;;;;20.65;54.27;101731.25;5078202;28;20066;-71
2022/08/12 08:08:55;;;;;;;17.38;6.22;;;;;;;20.73;53.29;101732.22;5076739;28;20459;-72
2022/08/12 08:14:06;;;;;;;17.20;6.47;;;;;;;20.94;53.83;101726.41;5077280;28;20078;-71
2022/08/12 08:16:32;;;;;;;12.95;5.38;;;;;;;21.01;53.05;101728.47;5076904;28;20052;-71
2022/08/12 08:18:58;;;;;;;20.08;6.22;;;;;;;21.11;53.53;101731.97;5077714;28;20020;-72
2022/08/12 08:21:26;;;;;;;16.05;5.60;;;;;;;21.19;53.22;101739.38;5077059;28;20138;-72
2022/08/12 08:26:35;;;;;;;15.07;6.40;;;;;;;21.41;52.51;101733.34;5074555;28;20078;-72
2022/08/12 08:29:00;;;;;;;16.23;6.30;;;;;;;21.48;52.41;101739.06;5074218;28;20036;-72
2022/08/12 08:31:25;;;;;;;12.00;5.63;;;;;;;21.57;52.45;101735.34;5073105;28;20047;-72
2022/08/12 08:33:52;;;;;;;17.55;6.35;;;;;;;21.53;53.21;101736.69;5074239;28;20095;-72
2022/08/12 08:36:19;;;;;;;16.00;5.75;;;;;;;21.55;53.15;101739.28;5072842;28;20499;-72
2022/08/12 08:38:45;;;;;;;16.20;5.72;;;;;;;21.57;53.08;101737.25;5074108;28;20036;-72
2022/08/12 08:44:11;;;;;;;16.40;5.97;;;;;;;21.91;51.88;101737.19;5010499;28;20092;-72
2022/08/12 08:46:36;;;;;;;14.02;5.40;;;;;;;21.89;52.57;101736.53;5011115;28;20453;-72
2022/08/12 08:49:03;;;;;;;15.02;6.10;;;;;;;21.95;52.48;101738.59;4994758;28;20038;-72
2022/08/12 08:51:29;;;;;;;16.38;5.95;;;;;;;21.97;53.06;101735.69;5011626;28;20030;-72
2022/08/12 08:53:55;;;;;;;14.18;5.70;;;;;;;21.93;53.51;101743.38;5011503;28;20523;-72
2022/08/12 08:56:21;;;;;;;17.58;6.00;;;;;;;22.04;51.13;101741.38;5010992;28;20037;-72
2022/08/12 08:58:48;;;;;;;15.10;5.95;;;;;;;22.16;50.10;101735.38;5011715;28;20505;-72
2022/08/12 09:01:20;;;;;;;11.65;4.80;;;;;;;22.07;53.18;101736.41;5011465;28;20110;-72
2022/08/12 09:03:46;;;;;;;13.63;5.72;;;;;;;22.22;48.97;101730.28;5011690;28;20029;-72
2022/08/12 09:06:13;;;;;;;16.98;5.63;;;;;;;22.36;49.03;101729.66;5011532;28;20026;-72
2022/08/12 09:08:41;;;;;;;15.52;5.57;;;;;;;22.31;52.45;101729.25;5011530;28;20038;-73
2022/08/12 09:13:50;;;;;;;15.63;5.68;;;;;;;22.42;50.34;101725.38;5011824;28;20053;-73
2022/08/12 09:16:16;;;;;;;13.60;4.90;;;;;;;22.36;52.17;101723.31;5011084;28;20041;-73
2022/08/12 09:18:42;;;;;;;11.73;4.88;;;;;;;22.41;52.78;101721.78;5055190;28;20033;-73
2022/08/12 09:21:08;;;;;;;16.17;5.85;;;;;;;22.60;47.45;101733.44;5071926;28;20032;-73
2022/08/12 09:23:35;;;;;;;12.32;5.07;;;;;;;22.66;50.75;101728.13;5072199;28;20030;-73
2022/08/12 09:26:01;;;;;;;16.95;5.57;;;;;;;22.66;51.88;101727.28;5073100;28;20070;-73
2022/08/12 09:28:31;;;;;;;12.18;5.10;;;;;;;22.63;52.01;101722.97;5073062;28;20051;-73
2022/08/12 09:30:57;;;;;;;12.40;5.07;;;;;;;22.63;52.48;101720.25;5072707;28;20049;-73
2022/08/12 09:33:32;;;;;;;16.73;5.28;;;;;;;22.75;50.35;101719.91;5071709;28;20028;-73
2022/08/12 09:35:59;;;;;;;14.82;5.75;;;;;;;22.77;50.82;101718.72;5072710;28;20163;-73
2022/08/12 09:38:27;;;;;;;12.65;5.32;;;;;;;22.80;52.09;101714.78;5072963;28;20052;-73
2022/08/12 09:40:52;;;;;;;16.60;6.03;;;;;;;22.92;49.97;101705.16;5072835;28;20554;-73
2022/08/12 09:46:02;;;;;;;15.30;5.10;;;;;;;23.00;49.76;101707.91;5072929;28;20075;-73
2022/08/12 09:48:28;;;;;;;12.50;4.93;;;;;;;23.12;48.96;101710.28;5072517;28;20056;-73
2022/08/12 09:50:54;;;;;;;14.27;5.38;;;;;;;23.25;46.71;101698.78;5071390;28;20544;-72
2022/08/12 09:53:24;;;;;;;14.18;4.85;;;;;;;23.28;49.17;101702.06;5072665;28;20051;-72
2022/08/12 09:55:56;;;;;;;13.40;5.28;;;;;;;23.53;43.19;101707.44;5072426;28;20032;-72
2022/08/12 09:58:27;;;;;;;14.00;5.70;;;;;;;23.88;42.24;101703.38;5071188;28;20518;-72
2022/08/12 10:01:00;;;;;;;13.25;5.15;;;;;;;23.91;45.46;101699.44;5070937;28;20029;-72
2022/08/12 10:03:27;;;;;;;15.35;5.20;;;;;;;24.01;45.25;101694.56;5072436;28;20025;-72
2022/08/12 10:05:53;;;;;;;12.80;4.82;;;;;;;24.09;45.82;101696.38;5071176;28;20146;-72
2022/08/12 10:08:20;;;;;;;13.73;5.25;;;;;;;24.14;45.67;101687.59;5071840;28;20024;-72
2022/08/12 10:13:41;;;;;;;15.40;6.07;;;;;;;24.26;43.58;101680.63;5072322;28;20515;-73
2022/08/12 10:16:07;;;;;;;15.25;4.88;;;;;;;24.18;45.00;101686.22;5070870;28;20370;-73
2022/08/12 10:18:35;;;;;;;16.67;5.53;;;;;;;24.28;43.25;101686.81;5072324;28;20032;-73
2022/08/12 10:21:04;;;;;;;10.53;4.83;;;;;;;24.41;43.87;101684.31;5072231;28;20063;-73
2022/08/12 10:23:29;;;;;;;;;;;;;;;24.46;42.61;101688.41;5072644;28;20468;-73
2022/08/12 10:31:23;;;;;;;15.88;6.10;;;;;;;24.67;39.72;101674.84;5071843;28;20465;-73
2022/08/12 10:33:48;;;;;;;13.98;5.85;;;;;;;24.59;45.52;101670.28;5072077;28;20024;-73
2022/08/12 10:36:13;;;;;;;12.68;5.00;;;;;;;24.57;44.85;101663.25;5071902;28;20376;-73
2022/08/12 10:38:39;;;;;;;12.68;5.45;;;;;;;24.58;45.47;101656.69;5072007;28;20020;-73
2022/08/12 10:44:04;;;;;;;12.35;5.05;;;;;;;24.47;47.43;101659.88;5029655;28;20067;-73
2022/08/12 10:46:29;;;;;;;11.60;5.00;;;;;;;24.58;43.12;101659.44;5029362;28;20477;-73
2022/08/12 10:48:54;;;;;;;11.45;4.82;;;;;;;24.61;46.70;101650.84;5029559;28;20172;-73
2022/08/12 10:51:20;;;;;;;12.75;5.15;;;;;;;24.80;43.00;101654.13;5029646;28;20029;-73
2022/08/12 10:53:45;;;;;;;10.13;4.57;;;;;;;24.59;46.89;101658.44;5029753;28;20036;-73
2022/08/12 10:56:12;;;;;;;12.95;5.40;;;;;;;24.85;38.04;101647.00;5029476;28;20075;-73
2022/08/12 10:58:38;;;;;;;14.45;5.40;;;;;;;25.03;40.57;101646.63;5029578;28;20039;-73
2022/08/12 11:01:05;;;;;;;15.35;5.85;;;;;;;25.38;37.35;101635.09;5026797;28;20116;-73
2022/08/12 11:03:36;;;;;;;15.82;5.30;;;;;;;25.50;38.00;101639.06;5029513;28;20489;-73
2022/08/12 11:06:03;;;;;;;13.55;4.90;;;;;;;25.46;40.07;101644.09;5029634;28;20037;-73
2022/08/12 11:08:29;;;;;;;10.73;5.35;;;;;;;25.37;43.88;101634.22;5029599;28;20056;-73
2022/08/12 11:10:54;;;;;;;13.00;4.78;;;;;;;25.28;45.57;101629.84;5012927;28;20060;-73
2022/08/12 11:13:19;;;;;;;13.95;4.90;;;;;;;25.16;44.06;101628.63;5029464;28;20091;-73
2022/08/12 11:15:45;;;;;;;16.48;5.97;;;;;;;25.27;43.36;101619.88;5029122;28;20030;-73
2022/08/12 11:18:11;;;;;;;13.70;5.03;;;;;;;25.42;40.48;101615.25;5029412;28;20030;-73
2022/08/12 11:20:37;;;;;;;12.07;4.53;;;;;;;25.26;43.59;101616.28;5070143;28;20036;-73
2022/08/12 11:23:02;;;;;;;14.20;6.10;;;;;;;25.39;37.94;101621.16;5075554;28;20020;-73
2022/08/12 11:25:27;;;;;;;17.20;5.40;;;;;;;25.41;38.92;101619.03;5075286;28;20063;-73
2022/08/12 11:27:52;;;;;;;13.80;5.07;;;;;;;25.47;41.49;101601.75;5075423;28;20051;-73
2022/08/12 11:30:18;;;;;;;11.80;4.78;;;;;;;25.31;44.75;101596.47;5074845;28;20028;-73
2022/08/12 11:32:44;;;;;;;10.13;4.70;;;;;;;25.40;41.81;101605.47;5075182;28;20385;-73
2022/08/12 11:35:09;;;;;;;11.25;5.13;;;;;;;25.38;39.52;101607.59;5075103;28;20020;-73
2022/08/12 11:37:36;;;;;;;14.10;5.60;;;;;;;25.43;41.72;101608.72;5075086;28;20031;-73
2022/08/12 11:40:02;;;;;;;10.95;4.40;;;;;;;25.47;43.94;101601.75;5073749;28;20044;-73
2022/08/12 11:42:27;;;;;;;15.23;5.65;;;;;;;25.67;36.61;101603.03;5073777;28;20020;-73
2022/08/12 11:44:52;;;;;;;8.68;4.28;;;;;;;25.69;43.14;101599.03;5073565;28;20024;-73
2022/08/12 11:47:18;;;;;;;17.60;6.13;;;;;;;25.79;38.70;101594.06;5073597;28;20096;-73
2022/08/12 11:49:43;;;;;;;10.98;4.63;;;;;;;25.65;43.39;101586.72;5074869;28;20032;-73
2022/08/12 11:52:08;;;;;;;9.35;4.65;;;;;;;25.50;44.64;101583.16;5074924;28;20031;-73
2022/08/12 11:54:34;;;;;;;13.27;4.88;;;;;;;25.58;41.54;101596.78;5073539;28;20036;-73
2022/08/12 11:57:00;;;;;;;14.98;5.97;;;;;;;25.68;38.00;101594.56;5074715;28;20473;-73
2022/08/12 11:59:25;;;;;;;13.15;4.82;;;;;;;25.57;43.77;101593.19;5074691;28;20047;-73
2022/08/12 12:01:50;;;;;;;14.25;5.25;;;;;;;25.55;41.78;101584.28;5074403;28;20028;-73
2022/08/12 12:04:16;;;;;;;13.30;5.55;;;;;;;25.66;40.36;101579.31;5074620;28;20028;-73
2022/08/12 12:06:42;;;;;;;13.70;5.18;;;;;;;25.73;38.96;101578.34;5074694;28;20031;-73
2022/08/12 12:09:07;;;;;;;15.20;4.75;;;;;;;25.73;43.04;101575.59;5073267;28;20388;-73
2022/08/12 12:11:32;;;;;;;12.10;5.00;;;;;;;25.72;43.70;101576.63;5073174;28;20020;-73
2022/08/12 12:13:58;;;;;;;15.35;6.15;;;;;;;25.92;36.69;101563.06;5073059;28;20107;-73
2022/08/12 12:16:23;;;;;;;16.55;5.80;;;;;;;26.03;36.42;101567.22;5074168;28;20020;-73
2022/08/12 12:18:48;;;;;;;14.23;5.00;;;;;;;26.21;36.14;101565.91;5074412;28;20054;-73
2022/08/12 12:21:14;;;;;;;9.40;4.85;;;;;;;26.12;41.28;101574.31;5067205;28;20035;-73
2022/08/12 12:23:39;;;;;;;11.30;5.18;;;;;;;26.18;37.44;101575.44;5052018;28;20055;-73
2022/08/12 12:26:05;;;;;;;13.00;5.40;;;;;;;26.20;39.45;101569.72;5053221;28;20103;-73
2022/08/12 12:28:32;;;;;;;12.98;5.30;;;;;;;26.15;39.52;101579.44;5054140;28;20108;-73
2022/08/12 12:30:57;;;;;;;12.15;5.13;;;;;;;26.08;42.29;101563.91;5058810;28;20052;-73
2022/08/12 12:33:22;;;;;;;14.18;5.30;;;;;;;26.04;42.64;101568.09;5074158;28;20032;-73
2022/08/12 12:35:48;;;;;;;13.88;5.72;;;;;;;26.16;41.49;101561.81;5072709;28;20017;-73
2022/08/12 12:38:14;;;;;;;13.35;4.80;;;;;;;26.13;37.97;101559.47;5074092;28;20031;-73
2022/08/12 12:40:42;;;;;;;11.73;4.78;;;;;;;26.13;42.16;101558.63;5073784;28;20047;-73
2022/08/12 12:43:07;;;;;;;10.25;4.85;;;;;;;26.10;42.73;101550.75;5072495;28;20021;-73
2022/08/12 12:45:35;;;;;;;12.82;5.20;;;;;;;26.10;42.37;101554.34;5073640;28;20069;-73
2022/08/12 12:48:12;;;;;;;16.98;5.32;;;;;;;26.29;36.06;101552.81;5072223;28;20035;-73
2022/08/12 12:50:38;;;;;;;14.43;5.40;;;;;;;26.46;37.93;101556.13;5073689;28;20169;-73
2022/08/12 12:53:04;;;;;;;11.77;5.25;;;;;;;26.33;42.61;101550.53;5073786;28;20439;-73
2022/08/12 12:55:34;;;;;;;16.83;5.30;;;;;;;26.23;42.54;101544.53;5073581;28;20035;-73
2022/08/12 12:58:03;;;;;;;8.38;4.43;;;;;;;26.16;42.70;101538.94;5073439;28;20029;-73
2022/08/12 13:00:31;;;;;;;14.80;6.20;;;;;;;26.32;36.27;101533.13;5073297;28;20024;-73
2022/08/12 13:02:57;;;;;;;12.43;5.30;;;;;;;26.51;36.21;101541.75;5073454;28;20052;-73
2022/08/12 13:05:28;;;;;;;10.95;5.10;;;;;;;26.58;41.33;101533.53;5072160;28;20774;-73
2022/08/12 13:07:56;;;;;;;12.65;5.28;;;;;;;26.52;42.29;101540.72;5073521;28;20105;-73
2022/08/12 13:10:22;;;;;;;14.63;6.25;;;;;;;26.56;42.16;101535.63;5072934;28;20080;-73